createdAt,value
2018-10-02T00:00:54.977Z,0.00
2018-10-02T00:03:24.917Z,0.60
2018-10-02T00:05:55.098Z,0.00
2018-10-02T00:08:24.805Z,1.00
2018-10-02T00:10:59.763Z,0.80
2018-10-02T00:13:34.557Z,0.40
2018-10-02T00:16:04.357Z,0.00
2018-10-02T00:18:34.248Z,0.80
2018-10-02T00:21:04.158Z,1.00
2018-10-02T00:23:33.826Z,0.60
2018-10-02T00:26:03.944Z,0.80
2018-10-02T00:28:33.688Z,0.00
2018-10-02T00:31:04.094Z,0.80
2018-10-02T00:33:33.857Z,0.00
2018-10-02T00:36:03.631Z,1.00
2018-10-02T00:38:33.945Z,0.00
2018-10-02T00:41:03.737Z,1.00
2018-10-02T00:43:33.873Z,0.40
2018-10-02T00:46:03.586Z,0.00
2018-10-02T00:48:33.221Z,0.00
2018-10-02T00:51:02.905Z,1.00
2018-10-02T00:53:32.678Z,1.00
2018-10-02T00:56:02.446Z,0.00
2018-10-02T00:58:32.328Z,1.80
2018-10-02T01:01:02.797Z,0.00
2018-10-02T01:03:32.837Z,0.00
2018-10-02T01:06:02.829Z,0.00
2018-10-02T01:08:32.579Z,0.00
2018-10-02T01:11:02.293Z,0.20
2018-10-02T01:13:31.953Z,0.00
2018-10-02T01:16:02.081Z,0.20
2018-10-02T01:18:31.912Z,0.00
2018-10-02T01:21:01.711Z,1.00
2018-10-02T01:23:31.841Z,0.60
2018-10-02T01:26:01.528Z,1.00
2018-10-02T01:28:31.256Z,1.00
2018-10-02T01:31:01.067Z,0.00
2018-10-02T01:33:30.885Z,0.20
2018-10-02T01:36:00.592Z,0.60
2018-10-02T01:38:30.596Z,0.20
2018-10-02T01:41:00.241Z,1.00
2018-10-02T01:43:29.988Z,1.00
2018-10-02T01:45:59.906Z,0.00
2018-10-02T01:48:29.869Z,0.00
2018-10-02T01:51:00.035Z,0.00
2018-10-02T01:53:30.162Z,0.40
2018-10-02T01:56:00.533Z,0.00
2018-10-02T01:58:30.672Z,0.80
2018-10-02T02:01:00.421Z,0.20
2018-10-02T02:03:30.241Z,0.20
2018-10-02T02:06:00.039Z,0.00
2018-10-02T02:08:30.140Z,1.00
2018-10-02T02:11:00.493Z,0.00
2018-10-02T02:13:30.599Z,0.00
2018-10-02T02:16:01.052Z,0.00
2018-10-02T02:18:31.076Z,0.60
2018-10-02T02:21:00.793Z,0.60
2018-10-02T02:23:31.301Z,0.00
2018-10-02T02:26:01.589Z,0.00
2018-10-02T02:28:31.324Z,0.00
2018-10-02T02:31:01.435Z,0.00
2018-10-02T02:33:31.434Z,0.00
2018-10-02T02:36:01.296Z,0.80
2018-10-02T02:38:31.083Z,0.60
2018-10-02T02:41:00.870Z,0.00
2018-10-02T02:43:30.582Z,1.00
2018-10-02T02:46:00.561Z,1.00
2018-10-02T02:51:15.842Z,0.20
2018-10-02T02:53:46.696Z,0.00
2018-10-02T02:56:16.670Z,0.40
2018-10-02T02:58:46.453Z,1.00
2018-10-02T03:01:17.209Z,1.00
2018-10-02T03:03:47.506Z,0.00
2018-10-02T03:06:17.239Z,1.00
2018-10-02T03:08:47.156Z,1.00
2018-10-02T03:11:17.395Z,0.20
2018-10-02T03:13:47.268Z,0.60
2018-10-02T03:16:17.136Z,0.00
2018-10-02T03:18:47.060Z,0.80
2018-10-02T03:21:17.101Z,0.00
2018-10-02T03:23:46.620Z,0.00
2018-10-02T03:26:16.797Z,0.80
2018-10-02T03:28:46.564Z,0.80
2018-10-02T03:31:16.256Z,1.00
2018-10-02T03:33:47.365Z,0.00
2018-10-02T03:36:17.301Z,1.00
2018-10-02T03:38:47.384Z,0.00
2018-10-02T03:41:17.018Z,0.20
2018-10-02T03:43:47.298Z,0.00
2018-10-02T03:46:17.151Z,0.20
2018-10-02T03:48:47.081Z,0.00
2018-10-02T03:51:17.022Z,1.00
2018-10-02T03:53:46.625Z,0.00
2018-10-02T03:56:16.862Z,0.60
2018-10-02T03:58:47.321Z,1.00
2018-10-02T04:01:17.007Z,0.20
2018-10-02T04:03:47.204Z,1.00
2018-10-02T04:06:16.803Z,0.00
2018-10-02T04:08:46.724Z,1.00
2018-10-02T04:11:16.557Z,0.60
2018-10-02T04:13:46.612Z,0.80
2018-10-02T04:16:16.314Z,0.40
2018-10-02T04:18:46.262Z,1.00
2018-10-02T04:21:20.971Z,0.60
2018-10-02T04:23:50.822Z,1.00
2018-10-02T04:26:21.228Z,0.00
2018-10-02T04:28:52.938Z,1.00
2018-10-02T04:31:22.917Z,0.00
2018-10-02T04:33:53.750Z,0.00
2018-10-02T04:36:23.625Z,0.60
2018-10-02T04:38:53.600Z,1.00
2018-10-02T04:41:23.308Z,0.80
2018-10-02T04:43:53.243Z,0.00
2018-10-02T04:46:23.191Z,0.80
2018-10-02T04:48:52.820Z,1.00
2018-10-02T04:51:22.572Z,1.00
2018-10-02T04:53:52.477Z,0.00
2018-10-02T04:56:22.287Z,0.80
2018-10-02T04:58:52.381Z,1.00
2018-10-02T05:01:22.383Z,1.00
2018-10-02T05:03:52.049Z,0.60
2018-10-02T05:06:22.122Z,1.00
2018-10-02T05:08:52.344Z,0.60
2018-10-02T05:11:23.246Z,0.00
2018-10-02T05:13:53.234Z,0.00
2018-10-02T05:16:23.354Z,0.40
2018-10-02T05:18:53.144Z,0.00
2018-10-02T05:21:22.808Z,1.00
2018-10-02T05:23:52.666Z,0.00
2018-10-02T05:26:22.390Z,0.60
2018-10-02T05:28:52.509Z,1.00
2018-10-02T05:31:22.186Z,1.00
2018-10-02T05:33:55.179Z,1.00
2018-10-02T05:36:25.006Z,1.00
2018-10-02T05:38:55.199Z,1.00
2018-10-02T05:41:26.163Z,1.00
2018-10-02T05:43:56.003Z,1.00
2018-10-02T05:46:26.499Z,0.00
2018-10-02T05:48:56.186Z,0.80
2018-10-02T05:51:25.918Z,2.00
2018-10-02T05:53:56.187Z,1.00
2018-10-02T05:56:25.939Z,1.00
2018-10-02T05:58:55.842Z,0.40
2018-10-02T06:01:25.741Z,1.00
2018-10-02T06:03:55.777Z,1.00
2018-10-02T06:06:25.731Z,1.00
2018-10-02T06:08:56.382Z,0.00
2018-10-02T06:11:26.791Z,1.00
2018-10-02T06:13:57.432Z,1.00
2018-10-02T06:16:27.747Z,0.60
2018-10-02T06:18:57.665Z,0.60
2018-10-02T06:21:28.030Z,1.00
2018-10-02T06:23:57.698Z,0.60
2018-10-02T06:26:27.617Z,0.60
2018-10-02T06:28:57.739Z,0.00
2018-10-02T06:31:27.834Z,0.80
2018-10-02T06:33:57.794Z,1.00
2018-10-02T06:36:27.598Z,0.60
2018-10-02T06:38:57.804Z,0.40
2018-10-02T06:41:31.159Z,1.00
2018-10-02T06:44:02.135Z,2.00
2018-10-02T06:46:32.466Z,1.00
2018-10-02T06:49:02.721Z,1.00
2018-10-02T06:51:32.933Z,0.00
2018-10-02T06:54:02.635Z,1.20
2018-10-02T06:56:33.719Z,1.40
2018-10-02T06:59:04.094Z,2.00
2018-10-02T07:01:34.686Z,1.00
2018-10-02T07:04:05.177Z,1.80
2018-10-02T07:06:34.998Z,1.60
2018-10-02T07:09:05.929Z,2.80
2018-10-02T07:11:36.548Z,1.40
2018-10-02T07:14:06.379Z,1.00
2018-10-02T07:16:38.819Z,2.00
2018-10-02T07:19:09.505Z,1.00
2018-10-02T07:21:39.837Z,1.00
2018-10-02T07:24:10.097Z,2.20
2018-10-02T07:26:40.924Z,1.60
2018-10-02T07:29:11.129Z,3.20
2018-10-02T07:31:42.159Z,2.00
2018-10-02T07:34:12.449Z,2.40
2018-10-02T07:36:43.336Z,3.20
2018-10-02T07:39:13.370Z,4.20
2018-10-02T07:41:43.550Z,2.40
2018-10-02T07:44:13.895Z,1.40
2018-10-02T07:46:44.527Z,3.60
2018-10-02T07:49:14.894Z,2.00
2018-10-02T07:51:45.303Z,4.00
2018-10-02T07:54:16.454Z,4.00
2018-10-02T07:56:46.376Z,3.00
2018-10-02T07:59:16.800Z,2.00
2018-10-02T08:01:48.038Z,4.00
2018-10-02T08:04:25.228Z,1.80
2018-10-02T08:06:55.758Z,2.00
2018-10-02T08:09:26.503Z,1.00
2018-10-02T08:11:57.367Z,2.00
2018-10-02T08:14:27.743Z,1.60
2018-10-02T08:16:59.192Z,2.00
2018-10-02T08:19:30.072Z,2.00
2018-10-02T08:22:00.069Z,4.00
2018-10-02T08:24:32.188Z,4.00
2018-10-02T08:27:02.939Z,1.40
2018-10-02T08:29:33.271Z,1.80
2018-10-02T08:32:03.862Z,1.00
2018-10-02T08:34:36.567Z,2.20
2018-10-02T08:37:09.354Z,2.80
2018-10-02T08:39:39.829Z,2.00
2018-10-02T08:42:10.471Z,1.00
2018-10-02T08:44:41.280Z,2.00
2018-10-02T08:47:11.287Z,2.00
2018-10-02T08:49:42.157Z,2.00
2018-10-02T08:52:12.999Z,2.00
2018-10-02T08:54:42.761Z,1.80
2018-10-02T08:57:14.311Z,1.00
2018-10-02T08:59:44.774Z,1.00
2018-10-02T09:02:14.441Z,1.00
2018-10-02T09:04:44.197Z,1.00
2018-10-02T09:07:14.287Z,1.00
2018-10-02T09:09:45.523Z,1.00
2018-10-02T09:12:16.322Z,1.40
2018-10-02T09:14:46.486Z,2.00
2018-10-02T09:17:16.331Z,1.00
2018-10-02T09:19:46.731Z,1.00
2018-10-02T09:22:17.018Z,1.00
2018-10-02T09:24:47.173Z,1.20
2018-10-02T09:27:16.881Z,1.20
2018-10-02T09:29:51.880Z,1.00
2018-10-02T09:32:27.198Z,1.00
2018-10-02T09:35:02.266Z,0.80
2018-10-02T09:37:37.625Z,1.60
2018-10-02T09:40:13.858Z,1.00
2018-10-02T09:42:49.022Z,1.00
2018-10-02T09:45:19.449Z,1.00
2018-10-02T09:47:49.442Z,1.00
2018-10-02T09:50:20.480Z,0.00
2018-10-02T09:52:50.129Z,2.00
2018-10-02T09:55:19.797Z,1.20
2018-10-02T09:57:50.498Z,1.40
2018-10-02T10:00:22.646Z,1.00
2018-10-02T10:02:57.561Z,1.80
2018-10-02T10:05:27.776Z,1.00
2018-10-02T10:07:58.278Z,1.00
2018-10-02T10:10:28.547Z,1.00
2018-10-02T10:12:58.483Z,1.00
2018-10-02T10:15:28.869Z,1.00
2018-10-02T10:17:59.199Z,1.00
2018-10-02T10:20:29.394Z,1.00
2018-10-02T10:22:59.590Z,1.00
2018-10-02T10:25:30.454Z,1.00
2018-10-02T10:28:00.323Z,1.00
2018-10-02T10:30:30.906Z,1.40
2018-10-02T10:33:01.019Z,1.00
2018-10-02T10:35:30.722Z,1.00
2018-10-02T10:38:00.530Z,0.00
2018-10-02T10:40:31.466Z,1.80
2018-10-02T10:43:01.408Z,1.00
2018-10-02T10:45:31.192Z,1.60
2018-10-02T10:48:01.789Z,1.60
2018-10-02T10:50:31.946Z,1.00
2018-10-02T10:53:01.960Z,1.00
2018-10-02T10:55:38.708Z,1.00
2018-10-02T10:58:08.605Z,1.80
2018-10-02T11:00:39.953Z,1.00
2018-10-02T11:03:10.206Z,2.00
2018-10-02T11:05:40.304Z,0.80
2018-10-02T11:08:11.051Z,1.00
2018-10-02T11:10:41.621Z,1.00
2018-10-02T11:13:11.322Z,1.00
2018-10-02T11:15:41.769Z,1.00
2018-10-02T11:18:12.318Z,0.00
2018-10-02T11:20:43.205Z,1.00
2018-10-02T11:23:13.394Z,1.00
2018-10-02T11:25:43.822Z,1.00
2018-10-02T11:28:14.232Z,1.00
2018-10-02T11:30:44.583Z,0.00
2018-10-02T11:33:15.094Z,1.00
2018-10-02T11:35:44.958Z,1.00
2018-10-02T11:38:14.986Z,1.00
2018-10-02T11:40:46.227Z,0.20
2018-10-02T11:43:17.179Z,1.00
2018-10-02T11:45:48.040Z,1.00
2018-10-02T11:48:18.053Z,1.00
2018-10-02T11:50:48.195Z,1.00
2018-10-02T11:53:18.446Z,0.00
2018-10-02T11:55:48.488Z,0.60
2018-10-02T11:58:19.784Z,0.00
2018-10-02T12:00:50.341Z,0.80
2018-10-02T12:03:20.536Z,0.00
2018-10-02T12:05:51.250Z,0.00
2018-10-02T12:08:22.206Z,1.00
2018-10-02T12:10:52.633Z,1.00
2018-10-02T12:13:23.085Z,0.00
2018-10-02T12:15:53.231Z,0.20
2018-10-02T12:18:23.436Z,0.00
2018-10-02T12:20:53.590Z,0.00
2018-10-02T12:23:24.195Z,1.00
2018-10-02T12:25:54.202Z,0.80
2018-10-02T12:28:25.315Z,0.00
2018-10-02T12:30:55.224Z,0.60
2018-10-02T12:33:25.464Z,0.00
2018-10-02T12:35:55.804Z,0.20
2018-10-02T12:38:27.650Z,0.00
2018-10-02T12:41:01.743Z,1.00
2018-10-02T12:43:33.347Z,0.00
2018-10-02T12:46:03.483Z,0.00
2018-10-02T12:48:34.908Z,0.80
2018-10-02T12:51:05.243Z,0.00
2018-10-02T12:53:41.732Z,0.00
2018-10-02T12:56:19.054Z,0.00
2018-10-02T12:58:53.080Z,0.00
2018-10-02T13:01:23.075Z,1.00
2018-10-02T13:03:53.640Z,0.20
2018-10-02T13:06:25.236Z,1.00
2018-10-02T13:08:55.452Z,1.00
2018-10-02T13:11:26.098Z,0.80
2018-10-02T13:13:57.918Z,0.00
2018-10-02T13:16:27.952Z,0.40
2018-10-02T13:18:59.635Z,1.00
2018-10-02T13:21:30.408Z,1.80
2018-10-02T13:24:01.506Z,0.20
2018-10-02T13:26:32.417Z,0.00
2018-10-02T13:29:03.891Z,1.00
2018-10-02T13:31:36.366Z,0.00
2018-10-02T13:34:07.645Z,1.00
2018-10-02T13:36:39.838Z,1.00
2018-10-02T13:39:11.178Z,1.00
2018-10-02T13:41:41.806Z,1.00
2018-10-02T13:44:12.309Z,0.00
2018-10-02T13:46:44.516Z,1.00
2018-10-02T13:49:17.512Z,0.20
2018-10-02T13:51:48.308Z,0.40
2018-10-02T13:54:19.288Z,1.00
2018-10-02T13:56:50.788Z,1.00
2018-10-02T13:59:21.900Z,0.20
2018-10-02T14:01:52.520Z,1.00
2018-10-02T14:04:23.138Z,0.40
2018-10-02T14:06:53.677Z,0.00
2018-10-02T14:09:25.450Z,0.00
2018-10-02T14:11:57.340Z,0.80
2018-10-02T14:14:28.331Z,0.60
2018-10-02T14:17:00.334Z,0.80
2018-10-02T14:19:33.335Z,0.60
2018-10-02T14:22:07.175Z,0.00
2018-10-02T14:24:39.582Z,1.00
2018-10-02T14:27:12.085Z,1.20
2018-10-02T14:29:43.097Z,0.20
2018-10-02T14:32:13.289Z,0.80
2018-10-02T14:34:43.738Z,1.00
2018-10-02T14:37:18.912Z,0.00
2018-10-02T14:39:51.182Z,1.00
2018-10-02T14:42:21.171Z,0.00
2018-10-02T14:44:51.146Z,1.00
2018-10-02T14:47:23.095Z,1.00
2018-10-02T14:49:53.421Z,2.00
2018-10-02T14:52:24.013Z,0.80
2018-10-02T14:54:56.783Z,1.00
2018-10-02T14:57:27.295Z,0.60
2018-10-02T14:59:58.074Z,1.00
2018-10-02T15:02:31.530Z,1.00
2018-10-02T15:05:03.093Z,0.00
2018-10-02T15:07:34.624Z,1.00
2018-10-02T15:10:08.698Z,0.20
2018-10-02T15:12:39.590Z,1.00
2018-10-02T15:15:10.121Z,0.60
2018-10-02T15:17:40.939Z,1.00
2018-10-02T15:20:11.949Z,0.00
2018-10-02T15:22:42.943Z,0.80
2018-10-02T15:25:13.186Z,0.40
2018-10-02T15:27:45.079Z,1.00
2018-10-02T15:30:15.471Z,1.00
2018-10-02T15:32:46.169Z,1.00
2018-10-02T15:35:16.228Z,1.00
2018-10-02T15:37:46.649Z,1.00
2018-10-02T15:40:17.410Z,1.00
2018-10-02T15:42:47.320Z,2.00
2018-10-02T15:45:20.244Z,0.20
2018-10-02T15:47:52.084Z,4.00
2018-10-02T15:50:22.938Z,4.00
2018-10-02T15:52:53.039Z,4.00
2018-10-02T15:55:24.086Z,4.80
2018-10-02T15:57:54.541Z,5.00
2018-10-02T16:00:25.210Z,4.20
2018-10-02T16:02:57.340Z,3.20
2018-10-02T16:05:27.942Z,4.60
2018-10-02T16:07:58.295Z,4.80
2018-10-02T16:10:28.307Z,4.60
2018-10-02T16:12:58.412Z,2.40
2018-10-02T16:15:30.090Z,4.00
2018-10-02T16:18:02.009Z,4.00
2018-10-02T16:20:34.399Z,4.40
2018-10-02T16:23:05.958Z,2.40
2018-10-02T16:25:37.369Z,4.00
2018-10-02T16:28:08.562Z,4.40
2018-10-02T16:30:41.935Z,3.60
2018-10-02T16:33:12.468Z,2.80
2018-10-02T16:35:44.191Z,2.40
2018-10-02T16:38:16.779Z,4.60
2018-10-02T16:40:50.628Z,4.20
2018-10-02T16:43:21.899Z,4.40
2018-10-02T16:45:54.331Z,2.00
2018-10-02T16:48:24.071Z,2.00
2018-10-02T16:50:54.839Z,4.00
2018-10-02T16:53:25.211Z,3.60
2018-10-02T16:55:56.330Z,4.00
2018-10-02T16:58:26.384Z,4.00
2018-10-02T17:00:57.385Z,4.00
2018-10-02T17:03:31.215Z,3.60
2018-10-02T17:06:01.451Z,3.20
2018-10-02T17:08:31.775Z,4.00
2018-10-02T17:11:02.208Z,4.20
2018-10-02T17:13:32.927Z,4.00
2018-10-02T17:16:03.635Z,2.00
2018-10-02T17:18:35.537Z,4.00
2018-10-02T17:21:06.517Z,4.00
2018-10-02T17:23:37.238Z,3.20
2018-10-02T17:26:09.983Z,4.20
2018-10-02T17:28:40.720Z,2.40
2018-10-02T17:31:11.886Z,3.20
2018-10-02T17:33:42.918Z,4.80
2018-10-02T17:38:40.749Z,4.00
2018-10-02T17:41:11.733Z,3.80
2018-10-02T17:43:43.773Z,3.80
2018-10-02T17:46:14.203Z,3.60
2018-10-02T17:48:45.234Z,2.00
2018-10-02T17:51:15.249Z,4.00
2018-10-02T17:53:45.354Z,5.00
2018-10-02T17:56:15.687Z,5.80
2018-10-02T17:58:48.863Z,4.00
2018-10-02T18:01:19.766Z,2.40
2018-10-02T18:03:50.047Z,4.00
2018-10-02T18:06:21.746Z,4.00
2018-10-02T18:08:54.277Z,4.00
2018-10-02T18:11:24.411Z,4.80
2018-10-02T18:13:55.216Z,3.20
2018-10-02T18:16:25.308Z,3.60
2018-10-02T18:18:56.940Z,3.20
2018-10-02T18:21:28.293Z,4.00
2018-10-02T18:24:00.326Z,1.60
2018-10-02T18:26:31.616Z,4.80
2018-10-02T18:29:02.752Z,4.20
2018-10-02T18:31:34.260Z,4.00
2018-10-02T18:34:05.931Z,2.00
2018-10-02T18:36:37.080Z,3.20
2018-10-02T18:39:08.674Z,3.20
2018-10-02T18:41:40.074Z,4.40
2018-10-02T18:44:13.393Z,2.00
2018-10-02T18:46:48.616Z,4.00
2018-10-02T18:49:20.089Z,3.20
2018-10-02T18:51:53.398Z,4.00
2018-10-02T18:54:23.862Z,2.00
2018-10-02T18:56:56.515Z,2.00
2018-10-02T18:59:26.839Z,4.00
2018-10-02T19:01:57.179Z,2.80
2018-10-02T19:04:27.931Z,4.40
2018-10-02T19:06:59.828Z,4.00
2018-10-02T19:09:31.204Z,4.00
2018-10-02T19:12:08.300Z,4.40
2018-10-02T19:14:38.585Z,2.40
2018-10-02T19:17:09.454Z,5.00
2018-10-02T19:19:45.341Z,0.80
2018-10-02T19:22:16.394Z,4.40
2018-10-02T19:24:47.827Z,4.00
2018-10-02T19:27:21.018Z,4.00
2018-10-02T19:29:56.909Z,4.00
2018-10-02T19:32:27.416Z,2.40
2018-10-02T19:34:57.595Z,4.00
2018-10-02T19:37:33.579Z,2.00
2018-10-02T19:40:04.337Z,2.00
2018-10-02T19:42:34.821Z,3.60
2018-10-02T19:45:11.312Z,2.80
2018-10-02T19:47:42.243Z,5.00
2018-10-02T19:50:12.427Z,4.00
2018-10-02T19:52:42.970Z,3.60
2018-10-02T19:55:13.415Z,4.00
2018-10-02T19:57:44.868Z,4.00
2018-10-02T20:00:16.132Z,2.00
2018-10-02T20:02:47.231Z,4.00
2018-10-02T20:05:22.860Z,4.20
2018-10-02T20:07:53.055Z,4.00
2018-10-02T20:10:23.676Z,2.00
2018-10-02T20:12:55.009Z,3.00
2018-10-02T20:15:27.461Z,4.00
2018-10-02T20:18:00.435Z,4.20
2018-10-02T20:20:31.663Z,4.00
2018-10-02T20:23:01.852Z,4.40
2018-10-02T20:25:32.465Z,4.00
2018-10-02T20:28:03.901Z,4.00
2018-10-02T20:30:38.053Z,5.00
2018-10-02T20:33:08.745Z,4.00
2018-10-02T20:35:39.903Z,4.00
2018-10-02T20:38:10.768Z,4.00
2018-10-02T20:40:41.140Z,5.40
2018-10-02T20:43:11.907Z,4.40
2018-10-02T20:45:43.148Z,4.00
2018-10-02T20:48:13.969Z,4.40
2018-10-02T20:50:45.082Z,4.00
2018-10-02T20:53:15.914Z,4.40
2018-10-02T20:55:47.204Z,2.00
2018-10-02T20:58:17.349Z,5.00
2018-10-02T21:00:48.666Z,5.00
2018-10-02T21:03:18.920Z,3.60
2018-10-02T21:05:49.306Z,3.20
2018-10-02T21:08:21.362Z,5.40
2018-10-02T21:10:51.199Z,4.20
2018-10-02T21:13:21.898Z,4.40
2018-10-02T21:15:52.210Z,4.40
2018-10-02T21:18:23.448Z,4.00
2018-10-02T21:20:54.073Z,2.40
2018-10-02T21:23:24.486Z,4.00
2018-10-02T21:25:54.551Z,5.00
2018-10-02T21:28:25.142Z,4.20
2018-10-02T21:30:55.284Z,3.60
2018-10-02T21:33:25.580Z,4.20
2018-10-02T21:35:56.540Z,4.60
2018-10-02T21:38:26.922Z,4.00
2018-10-02T21:40:56.986Z,4.00
2018-10-02T21:43:27.164Z,4.00
2018-10-02T21:45:57.826Z,3.00
2018-10-02T21:48:28.570Z,4.00
2018-10-02T21:50:59.805Z,4.00
2018-10-02T21:53:29.871Z,3.60
2018-10-02T21:56:00.711Z,4.00
2018-10-02T21:58:31.177Z,6.00
2018-10-02T22:01:06.234Z,4.60
2018-10-02T22:03:39.499Z,5.00
2018-10-02T22:06:10.607Z,4.00
2018-10-02T22:08:41.555Z,4.40
2018-10-02T22:11:13.232Z,2.40
2018-10-02T22:13:43.135Z,4.00
2018-10-02T22:16:13.857Z,3.60
2018-10-02T22:18:44.906Z,4.20
2018-10-02T22:21:15.007Z,4.00
2018-10-02T22:23:44.735Z,4.60
2018-10-02T22:26:14.944Z,5.00
2018-10-02T22:28:44.978Z,3.60
2018-10-02T22:31:15.082Z,4.60
2018-10-02T22:33:45.357Z,4.00
2018-10-02T22:36:16.090Z,4.80
2018-10-02T22:38:46.922Z,5.00
2018-10-02T22:41:16.726Z,4.40
2018-10-02T22:43:47.194Z,4.00
2018-10-02T22:46:17.343Z,4.00
2018-10-02T22:48:47.356Z,4.60
2018-10-02T22:51:17.836Z,5.80
2018-10-02T22:53:48.150Z,5.00
2018-10-02T22:56:19.079Z,7.20
2018-10-02T22:58:49.712Z,4.00
2018-10-02T23:01:26.678Z,3.20
2018-10-02T23:03:58.101Z,4.00
2018-10-02T23:06:28.281Z,3.20
2018-10-02T23:08:58.278Z,4.00
2018-10-02T23:11:29.210Z,4.60
2018-10-02T23:13:59.623Z,4.80
2018-10-02T23:16:29.699Z,4.40
2018-10-02T23:18:59.479Z,4.80
2018-10-02T23:21:30.099Z,2.40
2018-10-02T23:24:00.113Z,5.00
2018-10-02T23:26:30.463Z,4.00
2018-10-02T23:29:01.175Z,4.40
2018-10-02T23:31:31.282Z,4.80
2018-10-02T23:34:02.446Z,4.20
2018-10-02T23:36:32.658Z,4.00
2018-10-02T23:39:02.535Z,5.60
2018-10-02T23:41:32.727Z,5.00
2018-10-02T23:44:02.422Z,4.80
2018-10-02T23:46:32.402Z,2.40
2018-10-02T23:49:02.284Z,4.40
2018-10-02T23:51:32.959Z,5.00
2018-10-02T23:54:02.772Z,4.00
2018-10-02T23:56:33.183Z,5.00
2018-10-02T23:59:02.999Z,4.00
